Time;durP1;ratioP1;P1;durP2;ratioP2;P2;SDS_P1;SDS_P2;PMS_P1;PMS_P2;Temp;Humidity;BMP_temperature;BMP_pressure;BME280_temperature;BME280_humidity;BME280_pressure;Samples;Min_cycle;Max_cycle;Signal;HPM_P1;HPM_P2
2022/05/05 00:00:25;;;;;;;6.53;4.17;;;5.20;99.90;;;;;;5045123;28;20205;-61
2022/05/05 00:02:52;;;;;;;7.53;4.23;;;5.20;99.90;;;;;;5049596;28;20201;-61
2022/05/05 00:05:21;;;;;;;5.03;3.70;;;5.20;99.90;;;;;;5065209;28;20249;-61
2022/05/05 00:07:47;;;;;;;4.93;4.43;;;5.20;99.90;;;;;;5055974;28;20314;-61
2022/05/05 00:15:43;;;;;;;7.03;4.50;;;5.10;99.90;;;;;;5049051;28;20218;-61
2022/05/05 00:18:11;;;;;;;5.80;4.30;;;5.10;99.90;;;;;;5059360;28;20938;-61
2022/05/05 00:20:39;;;;;;;5.17;4.53;;;5.10;99.90;;;;;;5066883;28;20231;-61
2022/05/05 00:23:06;;;;;;;8.67;4.33;;;5.10;99.90;;;;;;5044855;28;20203;-61
2022/05/05 00:25:33;;;;;;;4.93;3.97;;;5.00;99.90;;;;;;5055006;28;20207;-61
2022/05/05 00:28:01;;;;;;;9.63;4.90;;;4.90;99.90;;;;;;5056924;28;20203;-61
2022/05/05 00:30:29;;;;;;;5.63;4.43;;;5.00;99.90;;;;;;5056944;28;20590;-60
2022/05/05 00:32:56;;;;;;;4.77;3.87;;;5.10;99.90;;;;;;5063637;28;20696;-61
2022/05/05 00:35:23;;;;;;;10.53;5.00;;;5.10;99.90;;;;;;5068785;28;20204;-61
2022/05/05 00:37:51;;;;;;;7.33;4.50;;;5.10;99.90;;;;;;5054939;28;20272;-61
2022/05/05 00:40:17;;;;;;;12.03;5.53;;;5.10;99.90;;;;;;5065493;28;21023;-60
2022/05/05 00:42:45;;;;;;;5.90;5.10;;;5.10;99.90;;;;;;5064927;28;20200;-61
2022/05/05 00:45:12;;;;;;;7.37;4.57;;;5.10;99.90;;;;;;5055344;28;23783;-61
2022/05/05 00:47:39;;;;;;;6.80;5.20;;;5.10;99.90;;;;;;5049572;28;20231;-61
2022/05/05 00:50:07;;;;;;;6.77;4.93;;;5.00;99.90;;;;;;5067100;28;20274;-61
2022/05/05 00:52:34;;;;;;;5.60;4.87;;;5.00;99.90;;;;;;5052010;28;20254;-61
2022/05/05 00:55:02;;;;;;;12.17;5.10;;;5.00;99.90;;;;;;5066858;28;20198;-61
2022/05/05 00:57:30;;;;;;;6.33;4.57;;;5.00;99.90;;;;;;5068113;28;20227;-61
2022/05/05 00:59:59;;;;;;;9.03;4.90;;;4.90;99.90;;;;;;5055091;28;20703;-61
2022/05/05 01:02:26;;;;;;;4.90;4.40;;;5.00;99.90;;;;;;5049993;28;21151;-61
2022/05/05 01:04:53;;;;;;;6.73;4.07;;;5.00;99.90;;;;;;5062777;28;20205;-61
2022/05/05 01:07:21;;;;;;;9.30;4.30;;;4.70;99.90;;;;;;5067882;28;20196;-65
2022/05/05 01:09:50;;;;;;;6.27;4.00;;;4.60;99.90;;;;;;5046437;28;20212;-61
2022/05/05 01:12:20;;;;;;;8.13;3.60;;;4.50;99.90;;;;;;5071317;28;20204;-61
2022/05/05 01:14:47;;;;;;;3.33;3.03;;;4.40;99.90;;;;;;5051031;28;20218;-61
2022/05/05 01:17:14;;;;;;;6.23;2.93;;;4.20;99.90;;;;;;5055674;28;20228;-61
2022/05/05 01:19:41;;;;;;;3.10;2.67;;;4.10;99.90;;;;;;5048707;28;20212;-61
2022/05/05 01:22:09;;;;;;;3.20;2.60;;;4.10;99.90;;;;;;5054757;28;20204;-61
2022/05/05 01:30:11;;;;;;;2.60;2.40;;;4.10;99.90;;;;;;5057675;28;20700;-61
2022/05/05 01:32:38;;;;;;;2.80;2.00;;;4.00;99.90;;;;;;5046498;28;24576;-61
2022/05/05 01:35:06;;;;;;;5.23;3.20;;;4.00;99.90;;;;;;5068482;28;20200;-61
2022/05/05 01:37:34;;;;;;;4.53;3.90;;;4.00;99.90;;;;;;5054213;28;20231;-61
2022/05/05 01:40:01;;;;;;;4.90;4.23;;;3.90;99.90;;;;;;5056633;28;20204;-61
2022/05/05 01:42:28;;;;;;;7.10;4.27;;;3.90;99.90;;;;;;5063839;28;20248;-61
2022/05/05 01:44:55;;;;;;;3.70;3.30;;;4.00;99.90;;;;;;5050637;28;20732;-61
2022/05/05 01:47:22;;;;;;;6.53;3.60;;;4.00;99.90;;;;;;5068916;28;20212;-61
2022/05/05 01:49:49;;;;;;;6.70;3.50;;;3.90;99.90;;;;;;5049726;28;20218;-61
2022/05/05 01:52:16;;;;;;;3.90;3.10;;;3.80;99.90;;;;;;5068610;28;20196;-61
2022/05/05 01:54:44;;;;;;;4.03;3.63;;;3.80;99.90;;;;;;5049445;28;20583;-60
2022/05/05 01:57:11;;;;;;;5.33;3.63;;;3.80;99.90;;;;;;5068609;28;20226;-61
2022/05/05 01:59:39;;;;;;;4.03;3.40;;;3.80;99.90;;;;;;5055045;28;20577;-61
2022/05/05 02:02:06;;;;;;;5.30;3.83;;;3.80;99.90;;;;;;5060913;28;20200;-60
2022/05/05 02:04:33;;;;;;;4.93;4.00;;;3.80;99.90;;;;;;5047887;28;20240;-61
2022/05/05 02:07:00;;;;;;;6.67;4.37;;;3.70;99.90;;;;;;5062729;28;20220;-61
2022/05/05 02:09:27;;;;;;;4.47;3.93;;;3.70;99.90;;;;;;5072647;28;20982;-61
2022/05/05 02:11:55;;;;;;;5.97;3.93;;;3.70;99.90;;;;;;5059193;28;20196;-61
2022/05/05 02:14:23;;;;;;;6.87;4.20;;;3.80;99.90;;;;;;5058737;28;20209;-61
2022/05/05 02:16:50;;;;;;;8.10;4.53;;;3.80;99.90;;;;;;5053419;28;20220;-61
2022/05/05 02:19:17;;;;;;;5.07;3.73;;;3.70;99.90;;;;;;5074863;28;20302;-61
2022/05/05 02:21:44;;;;;;;7.67;5.00;;;3.70;99.90;;;;;;5059875;28;20887;-60
2022/05/05 02:24:12;;;;;;;7.10;4.63;;;3.70;99.90;;;;;;5092512;28;20280;-61
2022/05/05 02:26:39;;;;;;;6.80;4.30;;;3.60;99.90;;;;;;5085293;28;20266;-61
2022/05/05 02:29:07;;;;;;;10.23;4.03;;;3.50;99.90;;;;;;5078338;28;20962;-61
2022/05/05 02:31:34;;;;;;;6.93;4.67;;;3.60;99.90;;;;;;5068705;28;20716;-60
2022/05/05 02:34:03;;;;;;;6.87;4.10;;;3.70;99.90;;;;;;5060210;28;21023;-61
2022/05/05 02:39:26;;;;;;;5.60;3.90;;;3.50;99.90;;;;;;5003446;28;20205;-61
2022/05/05 02:41:53;;;;;;;6.07;4.00;;;3.50;99.90;;;;;;5041923;28;20225;-61
2022/05/05 02:44:21;;;;;;;8.93;4.77;;;3.60;99.90;;;;;;5061727;28;20208;-61
2022/05/05 02:46:48;;;;;;;7.60;4.97;;;3.60;99.90;;;;;;5065195;28;20369;-61
2022/05/05 02:49:14;;;;;;;13.13;3.77;;;3.60;99.90;;;;;;5057429;28;20219;-61
2022/05/05 02:51:41;;;;;;;6.60;4.13;;;3.60;99.90;;;;;;5038746;28;24976;-61
2022/05/05 02:56:53;;;;;;;12.33;4.90;;;3.50;99.90;;;;;;5062633;28;20385;-61
2022/05/05 02:59:21;;;;;;;11.37;4.67;;;3.50;99.90;;;;;;5059919;28;20311;-61
2022/05/05 03:01:48;;;;;;;7.50;4.87;;;3.60;99.90;;;;;;5066617;28;20199;-61
2022/05/05 03:04:15;;;;;;;8.50;4.80;;;3.60;99.90;;;;;;5067168;28;20199;-60
2022/05/05 03:06:41;;;;;;;9.63;5.07;;;3.70;99.90;;;;;;5053455;28;20227;-61
2022/05/05 03:09:09;;;;;;;7.53;4.80;;;3.70;99.90;;;;;;5031275;28;20227;-61
2022/05/05 03:11:35;;;;;;;11.10;4.23;;;3.60;99.90;;;;;;5053067;28;20215;-61
2022/05/05 03:14:02;;;;;;;7.90;4.30;;;3.60;99.90;;;;;;5049962;28;21067;-61
2022/05/05 03:16:30;;;;;;;9.83;4.63;;;3.50;99.90;;;;;;5061763;28;20196;-61
2022/05/05 03:18:57;;;;;;;6.27;4.70;;;3.60;99.90;;;;;;5069097;28;20227;-61
2022/05/05 03:21:24;;;;;;;10.23;4.60;;;3.60;99.90;;;;;;5052143;28;20210;-61
2022/05/05 03:23:51;;;;;;;9.03;4.80;;;3.50;99.90;;;;;;5048505;28;20535;-61
2022/05/05 03:26:18;;;;;;;13.17;4.93;;;3.50;99.90;;;;;;5045536;28;20200;-61
2022/05/05 03:28:45;;;;;;;12.33;5.40;;;3.60;99.90;;;;;;5063582;28;20204;-61
2022/05/05 03:31:12;;;;;;;6.37;5.07;;;3.50;99.90;;;;;;5039035;28;21038;-61
2022/05/05 03:33:40;;;;;;;7.10;5.00;;;3.60;99.90;;;;;;5063776;28;20299;-61
2022/05/05 03:36:07;;;;;;;10.67;5.40;;;3.70;99.90;;;;;;5054330;28;20238;-61
2022/05/05 03:38:34;;;;;;;6.30;4.73;;;3.70;99.90;;;;;;5046447;28;20257;-61
2022/05/05 03:41:01;;;;;;;5.97;4.87;;;3.70;99.90;;;;;;5051385;28;20542;-61
2022/05/05 03:43:28;;;;;;;5.93;4.60;;;3.70;99.90;;;;;;5045887;28;20668;-61
2022/05/05 03:45:55;;;;;;;8.17;4.80;;;3.70;99.90;;;;;;5052177;28;20267;-61
2022/05/05 03:48:22;;;;;;;7.60;4.80;;;3.70;99.90;;;;;;5065191;28;20243;-61
2022/05/05 03:50:51;;;;;;;5.80;4.67;;;3.70;99.90;;;;;;5050041;28;20353;-60
2022/05/05 03:53:19;;;;;;;7.07;4.43;;;3.70;99.90;;;;;;5066325;28;20307;-61
2022/05/05 03:55:46;;;;;;;5.77;4.47;;;3.70;99.90;;;;;;5055980;28;20339;-61
2022/05/05 03:58:13;;;;;;;6.50;4.30;;;3.70;99.90;;;;;;5053155;28;20284;-61
2022/05/05 04:00:40;;;;;;;12.03;4.63;;;3.50;99.90;;;;;;5050955;28;20226;-61
2022/05/05 04:05:54;;;;;;;9.77;4.63;;;3.60;99.90;;;;;;5049931;28;20215;-61
2022/05/05 04:08:20;;;;;;;8.47;5.30;;;3.70;99.90;;;;;;5057218;28;20948;-61
2022/05/05 04:10:47;;;;;;;7.87;4.40;;;3.60;99.90;;;;;;5050590;28;20213;-61
2022/05/05 04:13:14;;;;;;;9.00;4.73;;;3.60;99.90;;;;;;5051417;28;20207;-61
2022/05/05 04:15:41;;;;;;;7.13;4.87;;;3.70;99.90;;;;;;5071892;28;20684;-61
2022/05/05 04:18:08;;;;;;;14.83;4.80;;;3.70;99.90;;;;;;5054548;28;20579;-61
2022/05/05 04:20:35;;;;;;;7.77;5.10;;;3.80;99.90;;;;;;5047619;28;20202;-61
2022/05/05 04:23:03;;;;;;;4.73;4.17;;;3.80;99.90;;;;;;5058999;28;21060;-61
2022/05/05 04:25:32;;;;;;;8.63;5.00;;;3.80;99.90;;;;;;5031324;28;20689;-61
2022/05/05 04:27:59;;;;;;;5.70;4.37;;;3.80;99.90;;;;;;5064298;28;20203;-61
2022/05/05 04:30:27;;;;;;;8.43;4.37;;;3.90;99.90;;;;;;5043532;28;20199;-61
2022/05/05 04:32:54;;;;;;;6.57;4.67;;;3.90;99.90;;;;;;5055261;28;20199;-61
2022/05/05 04:35:21;;;;;;;4.87;4.03;;;3.80;99.90;;;;;;5054068;28;20293;-61
2022/05/05 04:37:48;;;;;;;7.10;5.37;;;3.70;99.90;;;;;;5056592;28;20225;-60
2022/05/05 04:40:16;;;;;;;10.73;4.10;;;3.60;99.90;;;;;;5068451;28;20184;-61
2022/05/05 04:42:43;;;;;;;4.73;4.23;;;3.60;99.90;;;;;;5042734;28;20226;-61
2022/05/05 04:45:11;;;;;;;8.10;4.27;;;3.50;99.90;;;;;;5056344;28;20230;-61
2022/05/05 04:47:38;;;;;;;7.73;4.50;;;3.60;99.90;;;;;;5057234;28;20238;-61
2022/05/05 04:50:08;;;;;;;6.90;4.87;;;3.60;99.90;;;;;;5068539;28;20205;-60
2022/05/05 04:52:35;;;;;;;8.13;5.70;;;3.60;99.90;;;;;;5059554;28;20220;-61
2022/05/05 04:55:02;;;;;;;10.60;6.83;;;3.60;99.90;;;;;;5060620;28;20212;-61
2022/05/05 04:57:30;;;;;;;10.07;6.10;;;3.70;99.90;;;;;;5055778;28;20195;-61
2022/05/05 04:59:59;;;;;;;9.47;5.70;;;3.80;99.90;;;;;;5063411;28;20587;-61
2022/05/05 05:02:26;;;;;;;5.00;4.13;;;3.90;99.90;;;;;;5047500;28;20204;-61
2022/05/05 05:04:53;;;;;;;7.87;4.70;;;3.80;99.90;;;;;;5073767;28;20211;-62
2022/05/05 05:07:20;;;;;;;5.67;4.07;;;3.80;99.90;;;;;;5044648;28;20542;-61
2022/05/05 05:09:48;;;;;;;13.20;6.07;;;3.90;99.90;;;;;;5054478;28;20208;-61
2022/05/05 05:12:15;;;;;;;12.40;6.17;;;4.00;99.90;;;;;;5051569;28;20212;-61
2022/05/05 05:14:43;;;;;;;9.47;6.13;;;4.10;99.90;;;;;;5070177;28;20535;-61
2022/05/05 05:17:10;;;;;;;18.43;7.60;;;4.30;99.90;;;;;;5049446;28;20273;-61
2022/05/05 05:19:37;;;;;;;11.57;6.57;;;4.50;99.90;;;;;;5063449;28;20228;-61
2022/05/05 05:22:05;;;;;;;19.07;6.90;;;4.60;99.90;;;;;;5070251;28;20196;-62
2022/05/05 05:24:32;;;;;;;12.83;7.20;;;4.80;99.90;;;;;;5034711;28;20204;-61
2022/05/05 05:26:59;;;;;;;12.80;7.33;;;5.00;99.90;;;;;;5053037;28;20219;-61
2022/05/05 05:29:26;;;;;;;11.40;6.83;;;5.10;99.90;;;;;;5056096;28;20204;-61
2022/05/05 05:31:54;;;;;;;10.57;6.63;;;5.20;99.90;;;;;;5057281;28;21072;-61
2022/05/05 05:34:21;;;;;;;14.13;7.33;;;5.40;99.90;;;;;;5068287;28;20200;-61
2022/05/05 05:36:49;;;;;;;13.70;6.27;;;5.60;99.90;;;;;;5060507;28;20202;-61
2022/05/05 05:39:17;;;;;;;15.77;6.73;;;6.20;99.90;;;;;;5062826;28;20227;-60
2022/05/05 05:41:44;;;;;;;15.77;7.10;;;6.30;99.90;;;;;;5058493;28;20204;-61
2022/05/05 05:44:11;;;;;;;10.50;6.33;;;6.20;99.90;;;;;;5046692;28;20201;-61
2022/05/05 05:46:38;;;;;;;12.27;7.03;;;6.30;99.90;;;;;;5050897;28;20231;-61
2022/05/05 05:49:06;;;;;;;16.40;6.83;;;6.30;99.90;;;;;;5066262;28;20198;-61
2022/05/05 05:51:34;;;;;;;15.77;6.20;;;6.40;99.90;;;;;;5059835;28;21607;-61
2022/05/05 05:54:01;;;;;;;8.00;6.37;;;6.40;99.90;;;;;;5064603;28;20210;-61
2022/05/05 05:56:28;;;;;;;16.70;6.73;;;6.60;99.90;;;;;;5058736;28;20244;-60
2022/05/05 05:58:54;;;;;;;10.80;7.50;;;6.60;99.90;;;;;;5052909;28;20243;-61
2022/05/05 06:03:53;;;;;;;9.27;6.73;;;6.60;99.90;;;;;;5057661;28;20234;-61
2022/05/05 06:04:10;;;;;;;7.90;6.77;;;6.70;99.90;;;;;;5068694;28;20199;-62
2022/05/05 06:06:37;;;;;;;9.90;6.93;;;6.80;99.90;;;;;;5049887;28;20589;-61
2022/05/05 06:09:04;;;;;;;13.00;7.37;;;6.90;99.90;;;;;;5062418;28;20212;-60
2022/05/05 06:11:31;;;;;;;13.10;6.40;;;6.90;99.90;;;;;;5053540;28;20208;-61
2022/05/05 06:13:59;;;;;;;11.93;6.17;;;7.00;99.90;;;;;;5034648;28;20233;-61
2022/05/05 06:16:27;;;;;;;19.43;6.80;;;7.10;99.90;;;;;;5053280;28;20220;-61
2022/05/05 06:18:54;;;;;;;8.33;5.73;;;7.20;99.90;;;;;;5068072;28;20250;-60
2022/05/05 06:21:22;;;;;;;7.57;5.37;;;7.20;99.90;;;;;;5066538;28;20264;-62
2022/05/05 06:23:49;;;;;;;9.77;5.73;;;7.30;99.90;;;;;;5066450;28;20211;-61
2022/05/05 06:26:16;;;;;;;13.33;6.97;;;7.40;99.90;;;;;;5049364;28;20207;-60
2022/05/05 06:28:44;;;;;;;7.43;5.83;;;7.50;99.90;;;;;;5054046;28;20582;-61
2022/05/05 06:31:11;;;;;;;12.00;6.03;;;7.50;99.90;;;;;;5058998;28;20204;-61
2022/05/05 06:33:39;;;;;;;15.63;5.23;;;7.60;99.90;;;;;;5062613;28;20692;-61
2022/05/05 06:36:06;;;;;;;7.30;5.57;;;7.70;99.90;;;;;;5069658;28;20207;-61
2022/05/05 06:38:34;;;;;;;8.27;5.13;;;7.80;99.90;;;;;;5063022;28;20259;-60
2022/05/05 06:41:01;;;;;;;6.37;4.97;;;7.80;99.90;;;;;;5053962;28;20215;-61
2022/05/05 06:43:29;;;;;;;5.70;4.60;;;7.90;99.90;;;;;;5030675;28;20777;-61
2022/05/05 06:45:56;;;;;;;7.83;5.93;;;7.90;99.90;;;;;;5062032;28;21297;-61
2022/05/05 06:48:23;;;;;;;7.13;4.90;;;8.00;99.90;;;;;;5054666;28;20212;-60
2022/05/05 06:50:50;;;;;;;7.17;4.87;;;8.00;99.90;;;;;;5045406;28;20200;-61
2022/05/05 06:53:17;;;;;;;5.23;4.60;;;8.00;99.90;;;;;;5044611;28;20685;-61
2022/05/05 06:55:46;;;;;;;6.63;4.60;;;8.10;99.90;;;;;;5042292;28;20203;-61
2022/05/05 06:58:14;;;;;;;6.67;4.50;;;8.10;99.90;;;;;;5052349;28;20219;-61
2022/05/05 07:03:25;;;;;;;10.27;4.63;;;8.10;99.90;;;;;;5045455;28;20834;-61
2022/05/05 07:05:52;;;;;;;8.67;4.20;;;8.20;99.90;;;;;;5064639;28;20203;-61
2022/05/05 07:08:19;;;;;;;5.03;4.00;;;8.20;99.90;;;;;;5061292;28;20215;-62
2022/05/05 07:10:52;;;;;;;5.70;3.83;;;8.20;99.90;;;;;;5060261;28;20624;-61
2022/05/05 07:13:19;;;;;;;11.20;4.33;;;8.30;99.90;;;;;;5031603;28;20220;-61
2022/05/05 07:15:47;;;;;;;9.37;4.70;;;8.40;99.90;;;;;;5020139;28;20681;-61
2022/05/05 07:18:14;;;;;;;5.43;4.00;;;8.40;99.90;;;;;;5036250;28;20223;-61
2022/05/05 07:20:41;;;;;;;4.70;3.47;;;8.50;99.90;;;;;;5047909;28;20227;-61
2022/05/05 07:23:12;;;;;;;5.20;3.83;;;8.50;99.90;;;;;;5046867;28;20250;-61
2022/05/05 07:25:40;;;;;;;5.70;4.40;;;8.60;99.90;;;;;;5064373;28;20280;-61
2022/05/05 07:28:09;;;;;;;9.60;4.67;;;8.60;99.90;;;;;;5050869;28;20220;-61
2022/05/05 07:30:36;;;;;;;9.50;4.53;;;8.70;99.90;;;;;;5032557;28;24690;-62
2022/05/05 07:33:04;;;;;;;6.87;4.10;;;8.80;99.90;;;;;;5064492;28;20199;-61
2022/05/05 07:35:31;;;;;;;5.10;4.17;;;8.90;99.90;;;;;;5077183;28;20219;-61
2022/05/05 07:37:58;;;;;;;6.20;4.20;;;8.90;99.90;;;;;;5063898;28;20207;-60
2022/05/05 07:40:25;;;;;;;18.17;3.80;;;9.00;99.90;;;;;;5070733;28;20251;-61
2022/05/05 07:42:52;;;;;;;6.17;3.70;;;9.00;99.90;;;;;;5066065;28;20215;-60
2022/05/05 07:45:20;;;;;;;10.07;4.17;;;9.10;99.90;;;;;;5071301;28;20275;-61
2022/05/05 07:47:48;;;;;;;5.13;3.60;;;9.20;99.90;;;;;;5052598;28;20300;-61
2022/05/05 07:50:15;;;;;;;7.17;3.80;;;9.20;99.90;;;;;;5053152;28;20318;-62
2022/05/05 07:52:42;;;;;;;18.03;4.80;;;9.40;99.90;;;;;;5064625;28;20208;-61
2022/05/05 07:55:10;;;;;;;5.20;3.00;;;9.50;99.90;;;;;;5072956;28;20204;-61
2022/05/05 07:57:44;;;;;;;7.00;3.67;;;9.50;99.90;;;;;;5061506;28;22918;-61
2022/05/05 08:00:12;;;;;;;7.33;2.70;;;9.50;99.90;;;;;;5069725;28;20227;-61
2022/05/05 08:02:40;;;;;;;4.47;2.43;;;9.50;99.90;;;;;;5046099;28;20219;-61
2022/05/05 08:05:11;;;;;;;5.07;2.43;;;9.50;99.90;;;;;;5054918;28;20686;-62
2022/05/05 08:07:41;;;;;;;5.83;2.87;;;9.50;99.90;;;;;;5061359;28;20913;-61
2022/05/05 08:10:09;;;;;;;8.03;3.20;;;9.60;99.90;;;;;;5078479;28;20624;-61
2022/05/05 08:12:36;;;;;;;8.77;3.03;;;9.70;99.90;;;;;;5062322;28;20204;-61
2022/05/05 08:15:06;;;;;;;5.00;2.10;;;9.70;99.90;;;;;;5077068;28;20200;-61
2022/05/05 08:17:33;;;;;;;3.53;1.93;;;9.70;99.90;;;;;;5052900;28;20243;-62
2022/05/05 08:20:03;;;;;;;5.20;2.60;;;9.80;99.90;;;;;;5062897;28;20315;-62
2022/05/05 08:22:30;;;;;;;4.77;2.53;;;9.90;99.90;;;;;;5069226;28;20196;-62
2022/05/05 08:30:26;;;;;;;3.83;2.70;;;10.10;99.90;;;;;;5069340;28;20230;-62
2022/05/05 08:32:53;;;;;;;3.53;2.60;;;10.10;99.90;;;;;;5048698;28;20792;-62
2022/05/05 08:35:23;;;;;;;6.18;2.35;;;10.10;99.90;;;;;;5058166;28;20344;-61
2022/05/05 08:37:51;;;;;;;3.20;2.27;;;10.20;99.90;;;;;;5047668;28;20228;-61
2022/05/05 08:40:18;;;;;;;4.80;2.63;;;10.20;99.90;;;;;;5067168;28;20224;-61
2022/05/05 08:42:46;;;;;;;4.67;2.93;;;10.30;99.90;;;;;;5060226;28;20208;-61
2022/05/05 08:45:13;;;;;;;9.75;3.13;;;10.40;99.90;;;;;;5069988;28;20203;-61
2022/05/05 08:47:41;;;;;;;6.10;2.70;;;10.40;99.90;;;;;;5073023;28;20291;-61
2022/05/05 08:50:10;;;;;;;5.77;2.60;;;10.50;99.90;;;;;;5053043;28;20204;-61
2022/05/05 08:52:44;;;;;;;7.20;3.22;;;10.60;99.90;;;;;;5052873;28;20220;-61
2022/05/05 08:55:14;;;;;;;3.50;2.50;;;10.60;99.90;;;;;;5053545;28;20223;-61
2022/05/05 08:57:41;;;;;;;8.10;3.60;;;10.70;99.90;;;;;;5061432;28;20208;-61
2022/05/05 09:00:09;;;;;;;6.03;3.00;;;10.70;99.90;;;;;;5064522;28;20709;-62
2022/05/05 09:02:38;;;;;;;8.43;3.67;;;10.70;99.90;;;;;;5067276;28;20210;-61
2022/05/05 09:05:06;;;;;;;7.80;3.58;;;10.80;99.90;;;;;;5052964;28;20216;-61
2022/05/05 09:07:51;;;;;;;7.97;3.55;;;10.80;99.90;;;;;;5039624;28;20204;-61
2022/05/05 09:10:20;;;;;;;6.93;3.33;;;10.80;99.90;;;;;;5064286;28;21010;-61
2022/05/05 09:12:58;;;;;;;6.45;3.40;;;10.90;99.90;;;;;;5055484;28;20200;-62
2022/05/05 09:15:32;;;;;;;4.65;3.03;;;10.90;99.90;;;;;;5057376;28;20204;-62
2022/05/05 09:18:12;;;;;;;5.95;3.35;;;11.00;99.90;;;;;;5067685;28;20200;-61
2022/05/05 09:20:40;;;;;;;9.13;3.00;;;11.00;99.90;;;;;;5043454;28;20227;-62
2022/05/05 09:23:08;;;;;;;8.25;3.35;;;11.00;99.90;;;;;;5032593;28;20205;-61
2022/05/05 09:25:46;;;;;;;10.70;4.05;;;11.10;99.90;;;;;;5061924;28;20204;-61
2022/05/05 09:28:20;;;;;;;9.15;3.70;;;11.20;99.90;;;;;;5047217;28;20206;-61
2022/05/05 09:30:48;;;;;;;11.20;3.75;;;11.30;99.90;;;;;;5059274;28;20269;-61
2022/05/05 09:33:17;;;;;;;9.52;3.72;;;11.30;99.90;;;;;;5061437;28;20211;-61
2022/05/05 09:35:45;;;;;;;5.05;3.28;;;11.20;99.90;;;;;;5042415;28;20204;-61
2022/05/05 09:38:14;;;;;;;4.07;3.58;;;11.30;99.90;;;;;;5058595;28;21058;-61
2022/05/05 09:40:41;;;;;;;6.55;3.55;;;11.50;99.90;;;;;;5060211;28;20224;-61
2022/05/05 09:43:11;;;;;;;4.18;3.17;;;11.50;99.90;;;;;;5063997;28;20207;-61
2022/05/05 09:45:38;;;;;;;10.13;3.35;;;11.60;99.90;;;;;;5047012;28;20208;-61
2022/05/05 09:48:07;;;;;;;9.63;3.75;;;11.60;99.90;;;;;;5062007;28;20226;-61
2022/05/05 09:50:36;;;;;;;7.57;3.60;;;11.60;99.90;;;;;;5040744;28;20332;-61
2022/05/05 09:58:35;;;;;;;4.78;2.70;;;11.80;99.90;;;;;;5052211;28;20238;-61
2022/05/05 10:01:08;;;;;;;5.43;2.75;;;12.00;99.90;;;;;;5071967;28;20399;-61
2022/05/05 10:04:03;;;;;;;6.95;2.28;;;12.00;99.90;;;;;;5056707;28;20688;-61
2022/05/05 10:06:32;;;;;;;4.05;2.53;;;12.10;99.90;;;;;;5052657;28;20211;-61
2022/05/05 10:09:03;;;;;;;7.45;2.35;;;12.20;99.90;;;;;;5053959;28;20667;-61
2022/05/05 10:11:32;;;;;;;5.82;2.80;;;12.30;99.90;;;;;;5043646;28;20579;-61
2022/05/05 10:14:01;;;;;;;3.83;2.22;;;12.30;99.90;;;;;;5055483;28;20212;-62
2022/05/05 10:16:30;;;;;;;4.65;2.05;;;12.30;99.90;;;;;;5056374;28;20287;-61
2022/05/05 10:18:57;;;;;;;6.13;2.25;;;12.30;99.90;;;;;;5055178;28;20281;-61
2022/05/05 10:21:40;;;;;;;7.20;2.38;;;12.40;99.90;;;;;;5069932;28;20200;-61
2022/05/05 10:24:15;;;;;;;4.53;2.38;;;12.40;99.90;;;;;;5035757;28;20772;-61
2022/05/05 10:26:48;;;;;;;6.30;2.70;;;12.60;99.90;;;;;;5050314;28;20204;-63
2022/05/05 10:29:43;;;;;;;5.30;2.72;;;12.70;99.90;;;;;;5047714;28;20620;-61
2022/05/05 10:32:12;;;;;;;5.05;2.55;;;12.70;99.90;;;;;;5015669;28;20229;-61
2022/05/05 10:34:40;;;;;;;5.95;2.53;;;12.80;99.90;;;;;;5055440;28;20196;-61
2022/05/05 10:37:10;;;;;;;3.70;2.63;;;12.80;99.90;;;;;;5060309;28;20204;-62
2022/05/05 10:39:42;;;;;;;13.32;2.75;;;13.00;99.90;;;;;;5036990;28;21017;-61
2022/05/05 10:42:21;;;;;;;4.20;2.40;;;13.10;99.90;;;;;;5068243;28;20693;-62
2022/05/05 10:45:05;;;;;;;9.38;2.60;;;13.10;99.90;;;;;;5053882;28;20745;-62
2022/05/05 10:48:06;;;;;;;3.78;2.13;;;13.10;99.90;;;;;;5056138;28;21016;-62
2022/05/05 10:50:37;;;;;;;4.40;2.13;;;13.10;99.90;;;;;;5051652;28;20413;-62
2022/05/05 10:53:04;;;;;;;5.65;2.00;;;13.10;99.90;;;;;;5038088;28;20232;-62
2022/05/05 10:55:34;;;;;;;3.50;2.08;;;13.20;99.90;;;;;;5053322;28;20290;-61
2022/05/05 10:58:02;;;;;;;5.80;1.90;;;13.30;99.90;;;;;;5054769;28;20200;-61
2022/05/05 11:00:40;;;;;;;3.75;2.08;;;13.30;99.90;;;;;;5053800;28;20323;-61
2022/05/05 11:03:15;;;;;;;13.05;2.53;;;13.20;99.90;;;;;;5065916;28;20199;-62
2022/05/05 11:05:44;;;;;;;3.22;2.05;;;13.20;99.90;;;;;;5054271;28;20200;-62
2022/05/05 11:08:32;;;;;;;2.83;2.00;;;13.30;99.90;;;;;;5046960;28;20204;-62
2022/05/05 11:13:46;;;;;;;7.85;2.20;;;13.40;99.90;;;;;;5051282;28;20265;-62
2022/05/05 11:22:10;;;;;;;2.58;1.45;;;13.80;99.90;;;;;;5053280;28;20207;-62
2022/05/05 11:24:39;;;;;;;4.45;1.80;;;13.70;99.90;;;;;;5041272;28;20798;-62
2022/05/05 11:27:11;;;;;;;2.72;1.80;;;13.80;99.90;;;;;;5052377;28;20200;-61
2022/05/05 11:29:39;;;;;;;7.10;2.40;;;13.90;99.90;;;;;;5058895;28;20677;-61
2022/05/05 11:32:07;;;;;;;4.60;2.03;;;14.00;99.90;;;;;;5066395;28;20238;-63
2022/05/05 11:34:36;;;;;;;4.18;1.95;;;14.00;99.90;;;;;;5064836;28;20214;-61
2022/05/05 11:37:04;;;;;;;4.55;2.28;;;14.00;99.90;;;;;;5050292;28;20207;-61
2022/05/05 11:39:32;;;;;;;4.80;1.80;;;13.90;99.90;;;;;;5067376;28;20222;-61
2022/05/05 11:42:01;;;;;;;4.85;1.77;;;14.10;99.90;;;;;;5043272;28;20204;-61
2022/05/05 11:44:27;;;;;;;3.17;1.52;;;14.00;99.90;;;;;;5068689;28;20200;-61
2022/05/05 11:46:58;;;;;;;5.03;2.30;;;14.00;99.90;;;;;;5056705;28;20238;-61
2022/05/05 11:49:32;;;;;;;4.53;1.95;;;14.00;99.90;;;;;;5067691;28;20295;-61
2022/05/05 11:51:59;;;;;;;3.92;1.90;;;14.00;99.90;;;;;;5053310;28;20206;-61
2022/05/05 11:54:28;;;;;;;3.05;1.83;;;14.10;99.90;;;;;;5070208;28;20695;-61
2022/05/05 11:56:56;;;;;;;2.38;1.55;;;14.20;99.90;;;;;;5033830;28;20748;-61
2022/05/05 12:02:13;;;;;;;2.58;1.70;;;14.20;99.90;;;;;;5027853;28;20211;-61
2022/05/05 12:04:41;;;;;;;3.60;2.00;;;14.20;99.90;;;;;;5020064;28;20727;-61
2022/05/05 12:07:11;;;;;;;11.05;1.80;;;14.20;99.90;;;;;;5019704;28;20239;-61
2022/05/05 12:09:39;;;;;;;2.22;1.50;;;14.30;99.90;;;;;;5046790;28;20357;-61
2022/05/05 12:12:14;;;;;;;10.00;2.00;;;14.30;99.90;;;;;;5028009;28;20935;-61
2022/05/05 12:14:43;;;;;;;3.03;1.42;;;14.40;99.90;;;;;;5033859;28;20868;-61
2022/05/05 12:17:20;;;;;;;6.43;1.50;;;14.40;99.90;;;;;;5048080;28;21931;-61
2022/05/05 12:19:51;;;;;;;5.70;1.95;;;14.40;99.90;;;;;;5045411;28;20634;-61
2022/05/05 12:22:27;;;;;;;3.65;1.77;;;14.50;99.90;;;;;;5052869;28;20201;-61
2022/05/05 12:24:54;;;;;;;2.47;1.60;;;14.40;99.90;;;;;;5052824;28;20251;-61
2022/05/05 12:27:25;;;;;;;4.72;1.67;;;14.40;99.90;;;;;;5033701;28;21214;-61
2022/05/05 12:29:52;;;;;;;2.25;1.30;;;14.40;99.90;;;;;;5042114;28;20211;-61
2022/05/05 12:32:21;;;;;;;1.92;1.50;;;14.50;99.90;;;;;;5048886;28;20216;-61
2022/05/05 12:34:48;;;;;;;3.15;1.50;;;14.60;99.90;;;;;;5029465;28;20309;-61
2022/05/05 12:37:20;;;;;;;3.78;1.13;;;14.90;99.90;;;;;;5044031;28;20861;-62
2022/05/05 12:39:57;;;;;;;3.13;1.27;;;15.20;99.90;;;;;;5050815;28;20224;-61
2022/05/05 12:42:26;;;;;;;3.28;1.30;;;15.30;99.90;;;;;;5023179;28;20208;-61
2022/05/05 12:44:53;;;;;;;4.65;1.45;;;15.30;99.90;;;;;;5039798;28;20224;-62
2022/05/05 12:47:28;;;;;;;10.55;2.00;;;15.30;99.90;;;;;;5045668;28;21261;-61
2022/05/05 12:49:55;;;;;;;3.00;1.50;;;15.30;99.90;;;;;;5042125;28;20183;-60
2022/05/05 13:00:55;;;;;;;4.07;2.22;;;15.60;99.90;;;;;;5039802;28;20280;-61
2022/05/05 13:03:24;;;;;;;4.32;2.25;;;15.60;99.90;;;;;;5034152;28;20241;-61
2022/05/05 13:05:52;;;;;;;5.07;2.33;;;15.50;99.90;;;;;;5026551;28;20320;-61
2022/05/05 13:08:18;;;;;;;2.30;1.95;;;15.40;99.90;;;;;;5038418;28;20252;-62
2022/05/05 13:10:46;;;;;;;2.08;1.67;;;15.40;99.90;;;;;;5042279;28;20228;-61
2022/05/05 13:13:15;;;;;;;4.93;1.70;;;15.50;99.90;;;;;;5012077;28;20224;-62
2022/05/05 13:15:43;;;;;;;3.30;1.48;;;15.60;99.90;;;;;;5029165;28;20204;-62
2022/05/05 13:18:10;;;;;;;4.50;2.05;;;15.60;99.90;;;;;;5038257;28;20216;-62
2022/05/05 13:20:38;;;;;;;2.65;1.52;;;15.80;99.90;;;;;;5038253;28;20238;-61
2022/05/05 13:23:05;;;;;;;3.92;1.73;;;15.80;99.90;;;;;;5039153;28;20251;-61
2022/05/05 13:25:32;;;;;;;3.58;1.48;;;15.80;99.90;;;;;;5043492;28;20227;-61
2022/05/05 13:28:01;;;;;;;2.67;1.60;;;15.80;99.90;;;;;;5047530;28;20215;-61
2022/05/05 13:30:29;;;;;;;4.50;2.00;;;16.00;99.90;;;;;;5047718;28;20691;-62
2022/05/05 13:32:56;;;;;;;2.90;1.38;;;16.00;99.90;;;;;;5060710;28;20202;-64
2022/05/05 13:35:23;;;;;;;1.20;1.10;;;15.90;99.90;;;;;;5033002;28;20225;-62
2022/05/05 13:37:53;;;;;;;2.30;1.58;;;15.80;99.90;;;;;;5053042;28;20205;-62
2022/05/05 13:40:20;;;;;;;1.23;1.02;;;15.70;99.90;;;;;;5049344;28;20722;-61
2022/05/05 13:42:47;;;;;;;2.17;1.20;;;15.80;99.90;;;;;;5037967;28;20204;-62
2022/05/05 13:45:39;;;;;;;4.32;2.40;;;15.70;99.90;;;;;;5055771;28;20239;-62
2022/05/05 13:48:06;;;;;;;6.82;1.77;;;15.90;99.90;;;;;;5048390;28;20208;-61
2022/05/05 13:50:34;;;;;;;4.85;1.38;;;15.90;99.90;;;;;;5043542;28;20200;-62